ADDS METAR Data INFO
IDs: Format: Raw Decoded Include TAF

Data at: 1949 UTC 14 Aug 2018

KIRS 141935Z AUTO 24004KT 10SM CLR 30/18 A2998 RMK AO2 T03010183
KIRS 141916Z AUTO 24005KT 10SM CLR 30/19 A2999 RMK AO2 T02980188
KIRS 141855Z AUTO 27005KT 10SM CLR 30/19 A2999 RMK AO2 T02990191
KIRS 141835Z AUTO 28005KT 10SM SCT034 SCT044 SCT075 30/19 A3000 RMK AO2 T02970191
KIRS 141815Z AUTO 26007KT 10SM SCT034 SCT040 SCT048 30/20 A3000 RMK AO2 T02950197
KIRS 141755Z AUTO 00000KT 10SM SCT032 SCT043 SCT065 29/19 A3001 RMK AO2 T02900192 10293 20184
KIRS 141735Z AUTO 28004KT 10SM SCT032 SCT043 BKN065 28/19 A3001 RMK AO2 T02830192
KIRS 141715Z AUTO 27005KT 10SM SCT055 29/19 A3001 RMK AO2 T02910188
KIRS 141655Z AUTO 28006KT 10SM SCT055 29/19 A3001 RMK AO2 T02880187
KIRS 141635Z AUTO 27004KT 10SM CLR 28/18 A3001 RMK AO2 T02820181
KIRS 141615Z AUTO 26004KT 10SM CLR 28/19 A3001 RMK AO2 T02800185
KIRS 141555Z AUTO 27004KT 10SM CLR 27/19 A3001 RMK AO2 T02710187
KIRS 141535Z AUTO 24003KT 10SM CLR 27/19 A3001 RMK AO2 T02690187
KIRS 141515Z AUTO 28003KT 10SM CLR 27/19 A3002 RMK AO2 T02650186
KIRS 141455Z AUTO 25004KT 10SM CLR 25/19 A3002 RMK AO2 T02540190
KIRS 141435Z AUTO 22004KT 10SM CLR 25/19 A3002 RMK AO2 T02500186
KIRS 141415Z AUTO 22003KT 10SM CLR 23/18 A3002 RMK AO2 T02330182
KIRS 141355Z AUTO 22003KT 10SM CLR 23/18 A3002 RMK AO2 T02260181
KIRS 141335Z AUTO 00000KT 7SM CLR 22/19 A3002 RMK AO2 T02200191
KIRS 141315Z AUTO 00000KT 7SM CLR 21/19 A3002 RMK AO2 T02100185
KIRS 141255Z AUTO 00000KT 7SM CLR 20/19 A3002 RMK AO2 T02040185
KIRS 141235Z AUTO 00000KT 5SM BR SCT043 20/18 A3002 RMK AO2 T01960180
KIRS 141215Z AUTO 00000KT 4SM BR SCT043 19/18 A3002 RMK AO2 T01920175
KIRS 141155Z AUTO 00000KT 4SM BR SCT043 18/17 A3001 RMK AO2 T01810165 10195 20165
KIRS 141136Z AUTO 00000KT 2 1/2SM BR BKN043 18/16 A3001 RMK AO2 T01800163
KIRS 141115Z AUTO 00000KT 1 1/4SM BR BKN001 BKN042 17/16 A3001 RMK AO2 T01710155
KIRS 141055Z AUTO 00000KT M1/4SM FG OVC001 17/16 A3001 RMK AO2 T01720156
KIRS 141035Z AUTO 00000KT 1/4SM FG OVC001 17/15 A3000 RMK AO2 T01670150
KIRS 141015Z AUTO 00000KT 1/4SM FG OVC001 17/15 A3000 RMK AO2 T01650148
KIRS 140955Z AUTO 00000KT 1/4SM FG OVC003 17/15 A3000 RMK AO2 T01680152
KIRS 140935Z AUTO 00000KT 2 1/2SM BR CLR 18/16 A3001 RMK AO2 T01760160
KIRS 140915Z AUTO 00000KT 1 1/2SM BR SCT003 17/16 A3001 RMK AO2 VIS 1/2V5 T01730156
KIRS 140855Z AUTO 00000KT 3SM BR CLR 19/17 A3000 RMK AO2 T01850167
KIRS 140835Z AUTO 00000KT 4SM BR CLR 18/17 A3000 RMK AO2 T01820165
KIRS 140815Z AUTO 00000KT 2SM BR CLR 18/17 A3000 RMK AO2 VIS 1/2V5 T01830165
KIRS 140755Z AUTO 00000KT 7SM CLR 19/17 A3001 RMK AO2 T01850168
KIRS 140735Z AUTO 00000KT 7SM CLR 18/17 A3001 RMK AO2 T01820165
KIRS 140715Z AUTO 00000KT 7SM CLR 18/17 A3001 RMK AO2 T01820165
KIRS 140655Z AUTO 00000KT 5SM BR CLR 19/18 A3002 RMK AO2 T01920175
KIRS 140635Z AUTO 00000KT 1 1/4SM BR VV007 19/17 A3002 RMK AO2 T01870170
KIRS 140615Z AUTO 00000KT 5SM BR CLR 19/18 A3003 RMK AO2 T01930175
KIRS 140555Z AUTO 00000KT 7SM CLR 19/18 A3004 RMK AO2 T01940175 10268 20194 403000176
KIRS 140535Z AUTO 00000KT 7SM CLR 20/19 A3004 RMK AO2 T02020185
KIRS 140515Z AUTO 00000KT 10SM CLR 20/18 A3004 RMK AO2 T01990179
KIRS 140455Z AUTO 00000KT 10SM CLR 19/18 A3004 RMK AO2 T01940175
KIRS 140435Z AUTO 00000KT 10SM CLR 20/18 A3004 RMK AO2 T02000179
KIRS 140415Z AUTO 00000KT 10SM CLR 21/18 A3004 RMK AO2 T02100183
KIRS 140355Z AUTO 00000KT 10SM CLR 21/19 A3004 RMK AO2 T02120185
KIRS 140335Z AUTO 00000KT 10SM CLR 21/18 A3004 RMK AO2 T02110181
KIRS 140315Z AUTO 00000KT 10SM CLR 22/18 A3004 RMK AO2 T02200182
KIRS 140255Z AUTO 00000KT 10SM CLR 21/19 A3004 RMK AO2 T02100187
KIRS 140235Z AUTO 00000KT 10SM CLR 22/19 A3004 RMK AO2 T02170188
KIRS 140215Z AUTO 36003KT 10SM CLR 22/19 A3003 RMK AO2 T02160191
KIRS 140155Z AUTO 34003KT 10SM CLR 22/19 A3003 RMK AO2 T02220191
KIRS 140135Z AUTO 00000KT 10SM CLR 23/19 A3003 RMK AO2 T02300191
KIRS 140115Z AUTO 00000KT 10SM CLR 23/19 A3002 RMK AO2 T02340194
KIRS 140055Z AUTO 00000KT 10SM SCT049 24/20 A3002 RMK AO2 T02440200
KIRS 140035Z AUTO 00000KT 10SM BKN049 25/21 A3002 RMK AO2 T02450207
KIRS 140015Z AUTO 00000KT 10SM SCT049 SCT060 SCT070 26/20 A3001 RMK AO2 T02590198
KIRS 132355Z AUTO 00000KT 10SM BKN049 OVC060 26/21 A3001 RMK AO2 T02610207 10300 20261
KIRS 132335Z AUTO 35003KT 10SM OVC045 27/18 A3001 RMK AO2 T02720177
KIRS 132315Z AUTO 00000KT 10SM OVC045 28/17 A3001 RMK AO2 T02800172
KIRS 132255Z AUTO 28003KT 10SM BKN045 BKN060 OVC075 29/17 A3002 RMK AO2 T02870171
KIRS 132235Z AUTO 00000KT 10SM OVC045 28/17 A3002 RMK AO2 T02830172
KIRS 132215Z AUTO 00000KT 10SM BKN047 BKN060 OVC080 30/17 A3003 RMK AO2 T02980171
KIRS 132155Z AUTO 00000KT 10SM SCT046 SCT060 BKN080 30/17 A3003 RMK AO2 T02960166
KIRS 132135Z AUTO 00000KT 10SM SCT046 SCT070 30/17 A3003 RMK AO2 T02960169
KIRS 132115Z AUTO 00000KT 10SM BKN048 BKN070 29/17 A3004 RMK AO2 T02890169
KIRS 132055Z AUTO 03003KT 10SM BKN046 BKN070 BKN090 28/17 A3004 RMK AO2 T02800170
KIRS 132035Z AUTO 00000KT 10SM SCT046 SCT055 30/16 A3004 RMK AO2 T02960159
KIRS 132015Z AUTO 00000KT 10SM SCT044 30/16 A3004 RMK AO2 T02970160
KIRS 131955Z AUTO 00000KT 10SM SCT044 29/17 A3005 RMK AO2 T02870165
KIRS 131935Z AUTO 05005KT 10SM BKN044 29/17 A3006 RMK AO2 T02900173
KIRS 131915Z AUTO 00000KT 10SM SCT044 28/17 A3007 RMK AO2 T02810167
KIRS 131855Z AUTO 06005KT 10SM CLR 29/17 A3007 RMK AO2 T02860170
KIRS 131835Z AUTO 36003KT 10SM CLR 28/16 A3007 RMK AO2 T02840162
KIRS 131816Z AUTO 02005KT 10SM CLR 28/16 A3008 RMK AO2 T02840162
KIRS 131755Z AUTO 36004KT 10SM CLR 28/17 A3009 RMK AO2 T02810169 10290 20195
KIRS 131735Z AUTO 31003KT 10SM CLR 29/17 A3009 RMK AO2 T02850167
KIRS 131715Z AUTO 00000KT 10SM CLR 28/16 A3010 RMK AO2 T02800156
KIRS 131655Z AUTO 00000KT 10SM CLR 28/16 A3011 RMK AO2 T02780157
KIRS 131635Z AUTO 33003KT 10SM CLR 28/16 A3011 RMK AO2 T02800159
KIRS 131615Z AUTO 00000KT 10SM SCT065 28/16 A3012 RMK AO2 T02790160
KIRS 131555Z AUTO 00000KT 10SM SCT065 27/17 A3012 RMK AO2 T02740172
KIRS 131535Z AUTO 00000KT 10SM SCT065 SCT075 27/18 A3013 RMK AO2 T02650177
KIRS 131515Z AUTO 00000KT 10SM SCT065 26/17 A3013 RMK AO2 T02610170
KIRS 131512Z AUTO 00000KT 10SM CLR 27/17 A3013 RMK AO2 T02650172
KIRS 131453Z AUTO 00000KT 10SM CLR 26/18 A3013 RMK AO2 T02610177
KIRS 131435Z AUTO 00000KT 10SM CLR 26/16 A3013 RMK AO2 T02620160
KIRS 131415Z AUTO 00000KT 10SM CLR 25/16 A3013 RMK AO2 T02500162
KIRS 131355Z AUTO 00000KT 10SM CLR 24/17 A3013 RMK AO2 T02430171
KIRS 131335Z AUTO 00000KT 10SM CLR 24/18 A3013 RMK AO2 T02390175
KIRS 131315Z AUTO 00000KT 10SM CLR 23/18 A3013 RMK AO2 T02310180
KIRS 131255Z AUTO 00000KT 10SM CLR 22/18 A3012 RMK AO2 T02220180
KIRS 131235Z AUTO 00000KT 10SM CLR 22/18 A3012 RMK AO2 T02150181
KIRS 131215Z AUTO 00000KT 5SM BR CLR 20/18 A3012 RMK AO2 T02040183
KIRS 131155Z AUTO 00000KT 5SM BR CLR 19/17 A3012 RMK AO2 T01930173 10194 20176
KIRS 131135Z AUTO 00000KT 7SM CLR 19/17 A3012 RMK AO2 T01850167
KIRS 131115Z AUTO 00000KT 5SM BR CLR 18/17 A3011 RMK AO2 T01830166
KIRS 131055Z AUTO 00000KT 5SM BR CLR 18/16 A3011 RMK AO2 T01780161
KIRS 131035Z AUTO 00000KT 7SM CLR 18/16 A3011 RMK AO2 T01770160
KIRS 131015Z AUTO 00000KT 2SM BR CLR 18/16 A3011 RMK AO2 T01800162
KIRS 130955Z AUTO 00000KT 3SM BR CLR 18/17 A3011 RMK AO2 T01820165
KIRS 130935Z AUTO 00000KT 2 1/2SM BR CLR 18/16 A3011 RMK AO2 T01780161
KIRS 130915Z AUTO 00000KT 3SM BR SCT070 18/16 A3011 RMK AO2 T01780161
KIRS 130855Z AUTO 00000KT 5SM BR CLR 19/17 A3011 RMK AO2 T01850167
KIRS 130835Z AUTO 00000KT 5SM BR CLR 18/17 A3011 RMK AO2 T01810165
KIRS 130815Z AUTO 06003KT 7SM CLR 18/17 A3012 RMK AO2 T01830166
KIRS 130755Z AUTO 07003KT 4SM BR CLR 18/16 A3012 RMK AO2 T01800163